Acala del Rio, Spain
Current Conditions -  °F | °C
As of 8:00 PM on Friday 24 Oct 2014 (Local Time) from LEZL Reporting Station
Clear Clear  
Wind Chill: 77°   Ceiling: Unl
Heat Index: 78°   Visibility: 6mi
Dew Point: 48°   Wind: 5mph
Humidity: 36%   Direction: 70°ENE
Pressure: 29.94"   Gusts: NA
Location:  37.52°N, 5.98°W
Report Text: LEZL 241800Z 07004KT CAVOK 25/09 Q1014 NOSIG
Loading
Personal Weather Stations






























Interactive Weather Map
Tropical Storm Tracking
New forecast layout! Learn more

10-Day Weather Forecast

Advertisements
Track Severe Weather on mobile